createdAt,value
2018-08-14T00:00:52.779Z,0
2018-08-14T00:01:54.470Z,0
2018-08-14T00:02:56.157Z,0
2018-08-14T00:03:57.839Z,0
2018-08-14T00:04:59.539Z,0
2018-08-14T00:06:01.290Z,0
2018-08-14T00:07:02.978Z,0
2018-08-14T00:08:04.755Z,0
2018-08-14T00:09:06.437Z,0
2018-08-14T00:10:08.220Z,0
2018-08-14T00:11:10.012Z,0
2018-08-14T00:12:12.620Z,0
2018-08-14T00:13:14.310Z,0
2018-08-14T00:14:16.094Z,0
2018-08-14T00:15:17.807Z,0
2018-08-14T00:16:19.511Z,0
2018-08-14T00:17:21.200Z,0
2018-08-14T00:18:22.897Z,0
2018-08-14T00:19:24.632Z,0
2018-08-14T00:20:26.373Z,0
2018-08-14T00:21:28.119Z,0
2018-08-14T00:22:29.802Z,0
2018-08-14T00:23:31.539Z,0
2018-08-14T00:24:33.270Z,0
2018-08-14T00:25:34.990Z,0
2018-08-14T00:26:36.699Z,0
2018-08-14T00:27:38.411Z,0
2018-08-14T00:28:40.098Z,0
2018-08-14T00:29:41.818Z,0
2018-08-14T00:30:43.541Z,0
2018-08-14T00:31:45.288Z,0
2018-08-14T00:32:46.979Z,0
2018-08-14T00:33:48.667Z,0
2018-08-14T00:34:50.367Z,0
2018-08-14T00:35:52.076Z,0
2018-08-14T00:36:53.781Z,0
2018-08-14T00:37:55.483Z,0
2018-08-14T00:38:57.213Z,0
2018-08-14T00:39:58.943Z,0
2018-08-14T00:41:00.674Z,0
2018-08-14T00:42:02.373Z,0
2018-08-14T00:43:04.070Z,0
2018-08-14T00:44:05.791Z,0
2018-08-14T00:45:07.477Z,0
2018-08-14T00:46:09.165Z,0
2018-08-14T00:47:10.888Z,0
2018-08-14T00:48:12.583Z,0
2018-08-14T00:49:14.270Z,0
2018-08-14T00:50:15.974Z,0
2018-08-14T00:51:17.674Z,0
2018-08-14T00:52:19.390Z,0
2018-08-14T00:53:21.127Z,0
2018-08-14T00:54:22.818Z,0
2018-08-14T00:55:24.550Z,0
2018-08-14T00:56:26.280Z,0
2018-08-14T00:57:27.970Z,0
2018-08-14T00:58:29.675Z,0
2018-08-14T00:59:31.372Z,0
2018-08-14T01:00:33.088Z,0
2018-08-14T01:01:34.777Z,0
2018-08-14T01:02:36.458Z,0
2018-08-14T01:03:38.141Z,0
2018-08-14T01:04:39.840Z,0
2018-08-14T01:05:41.537Z,0
2018-08-14T01:06:43.215Z,0
2018-08-14T01:07:44.927Z,0
2018-08-14T01:08:46.616Z,0
2018-08-14T01:09:48.343Z,0
2018-08-14T01:10:50.054Z,0
2018-08-14T01:11:51.773Z,0
2018-08-14T01:12:53.467Z,0
2018-08-14T01:13:55.170Z,0
2018-08-14T01:14:56.864Z,0
2018-08-14T01:15:58.548Z,0
2018-08-14T01:17:00.274Z,0
2018-08-14T01:18:01.977Z,0
2018-08-14T01:19:03.659Z,0
2018-08-14T01:20:05.378Z,0
2018-08-14T01:21:07.130Z,0
2018-08-14T01:22:08.829Z,0
2018-08-14T01:23:10.547Z,0
2018-08-14T01:24:12.269Z,0
2018-08-14T01:25:13.965Z,0
2018-08-14T01:26:15.692Z,0
2018-08-14T01:27:17.386Z,0
2018-08-14T01:28:19.108Z,0
2018-08-14T01:29:20.801Z,0
2018-08-14T01:30:22.521Z,0
2018-08-14T01:31:24.208Z,0
2018-08-14T01:32:25.930Z,0
2018-08-14T01:33:27.617Z,0
2018-08-14T01:34:29.322Z,0
2018-08-14T01:35:31.051Z,0
2018-08-14T01:36:32.774Z,0
2018-08-14T01:37:34.453Z,0
2018-08-14T01:38:36.155Z,0
2018-08-14T01:39:37.843Z,0
2018-08-14T01:40:39.573Z,0
2018-08-14T01:41:41.307Z,0
2018-08-14T01:42:43.030Z,0
2018-08-14T01:43:44.755Z,0
2018-08-14T01:44:46.446Z,0
2018-08-14T01:45:48.158Z,0
2018-08-14T01:46:49.838Z,0
2018-08-14T01:47:51.541Z,0
2018-08-14T01:48:53.272Z,0
2018-08-14T01:49:54.988Z,0
2018-08-14T01:50:56.705Z,0
2018-08-14T01:51:58.405Z,0
2018-08-14T01:53:00.125Z,0
2018-08-14T01:54:01.851Z,0
2018-08-14T01:55:03.558Z,0
2018-08-14T01:56:05.282Z,0
2018-08-14T01:57:06.980Z,0
2018-08-14T01:58:08.717Z,0
2018-08-14T01:59:10.421Z,0
2018-08-14T02:00:12.149Z,0
2018-08-14T02:01:13.844Z,0
2018-08-14T02:02:15.527Z,0
2018-08-14T02:03:17.205Z,0
2018-08-14T02:04:18.899Z,0
2018-08-14T02:05:20.624Z,0
2018-08-14T02:06:22.305Z,0
2018-08-14T02:07:24.043Z,0
2018-08-14T02:08:25.772Z,0
2018-08-14T02:09:27.473Z,0
2018-08-14T02:10:29.179Z,0
2018-08-14T02:11:30.913Z,0
2018-08-14T02:12:32.612Z,0
2018-08-14T02:13:34.339Z,0
2018-08-14T02:14:36.050Z,0
2018-08-14T02:15:37.744Z,0
2018-08-14T02:16:39.470Z,0
2018-08-14T02:17:41.176Z,0
2018-08-14T02:18:42.893Z,0
2018-08-14T02:19:44.609Z,0
2018-08-14T02:20:46.344Z,0
2018-08-14T02:21:48.022Z,0
2018-08-14T02:22:49.742Z,0
2018-08-14T02:23:51.484Z,0
2018-08-14T02:24:53.167Z,0
2018-08-14T02:25:54.900Z,0
2018-08-14T02:26:56.585Z,0
2018-08-14T02:27:58.294Z,0
2018-08-14T02:28:59.989Z,0
2018-08-14T02:30:01.701Z,0
2018-08-14T02:31:03.394Z,0
2018-08-14T02:32:05.109Z,0
2018-08-14T02:33:06.816Z,0
2018-08-14T02:34:08.543Z,0
2018-08-14T02:35:10.285Z,0
2018-08-14T02:36:12.012Z,0
2018-08-14T02:37:13.711Z,0
2018-08-14T02:38:15.423Z,0
2018-08-14T02:39:17.114Z,0
2018-08-14T02:40:18.834Z,0
2018-08-14T02:41:20.552Z,0
2018-08-14T02:42:22.282Z,0
2018-08-14T02:43:23.974Z,0
2018-08-14T02:44:25.697Z,0
2018-08-14T02:45:27.401Z,0
2018-08-14T02:46:29.113Z,0
2018-08-14T02:47:30.821Z,0
2018-08-14T02:48:32.517Z,0
2018-08-14T02:49:34.214Z,0
2018-08-14T02:50:35.961Z,0
2018-08-14T02:51:37.647Z,0
2018-08-14T02:52:39.351Z,0
2018-08-14T02:53:41.057Z,0
2018-08-14T02:54:42.789Z,0
2018-08-14T02:55:44.496Z,0
2018-08-14T02:56:46.176Z,0
2018-08-14T02:57:47.901Z,0
2018-08-14T02:58:49.587Z,0
2018-08-14T02:59:51.274Z,0
2018-08-14T03:00:52.972Z,0
2018-08-14T03:01:54.665Z,0
2018-08-14T03:02:56.377Z,0
2018-08-14T03:03:58.070Z,0
2018-08-14T03:04:59.791Z,0
2018-08-14T03:06:01.484Z,0
2018-08-14T03:07:03.227Z,0
2018-08-14T03:08:04.909Z,0
2018-08-14T03:09:06.651Z,0
2018-08-14T03:10:08.365Z,0
2018-08-14T03:11:10.111Z,0
2018-08-14T03:12:11.786Z,0
2018-08-14T03:13:13.476Z,0
2018-08-14T03:14:15.194Z,0
2018-08-14T03:15:16.892Z,0
2018-08-14T03:16:18.576Z,0
2018-08-14T03:17:20.287Z,0
2018-08-14T03:18:21.995Z,0
2018-08-14T03:19:23.694Z,0
2018-08-14T03:20:25.384Z,0
2018-08-14T03:21:27.120Z,0
2018-08-14T03:22:28.822Z,0
2018-08-14T03:23:30.512Z,0
2018-08-14T03:24:32.202Z,0
2018-08-14T03:25:33.915Z,0
2018-08-14T03:26:35.689Z,0
2018-08-14T03:27:37.365Z,0
2018-08-14T03:28:39.067Z,0
2018-08-14T03:29:40.786Z,0
2018-08-14T03:30:42.476Z,0
2018-08-14T03:31:44.215Z,0
2018-08-14T03:32:45.911Z,0
2018-08-14T03:33:47.633Z,0
2018-08-14T03:34:49.310Z,0
2018-08-14T03:35:51.039Z,0
2018-08-14T03:36:52.721Z,0
2018-08-14T03:37:54.417Z,0
2018-08-14T03:38:56.142Z,0
2018-08-14T03:39:57.835Z,0
2018-08-14T03:40:59.573Z,0
2018-08-14T03:42:01.306Z,0
2018-08-14T03:43:02.998Z,0
2018-08-14T03:44:04.709Z,0
2018-08-14T03:45:06.422Z,0
2018-08-14T03:46:08.115Z,0
2018-08-14T03:47:09.850Z,0
2018-08-14T03:48:11.532Z,0
2018-08-14T03:49:13.259Z,0
2018-08-14T03:50:14.999Z,0
2018-08-14T03:51:16.690Z,0
2018-08-14T03:52:18.393Z,0
2018-08-14T03:53:20.116Z,0
2018-08-14T03:54:21.808Z,0
2018-08-14T03:55:23.534Z,0
2018-08-14T03:56:25.212Z,0
2018-08-14T03:57:26.906Z,0
2018-08-14T03:58:28.621Z,0
2018-08-14T03:59:30.297Z,0
2018-08-14T04:00:32.020Z,0
2018-08-14T04:01:33.706Z,0
2018-08-14T04:02:35.395Z,0
2018-08-14T04:03:37.088Z,0
2018-08-14T04:04:38.814Z,0
2018-08-14T04:05:40.504Z,0
2018-08-14T04:06:42.194Z,0
2018-08-14T04:07:43.907Z,0
2018-08-14T04:08:45.633Z,0
2018-08-14T04:09:47.319Z,0
2018-08-14T04:10:48.993Z,0
2018-08-14T04:11:50.711Z,0
2018-08-14T04:12:52.425Z,0
2018-08-14T04:13:54.113Z,0
2018-08-14T04:14:55.805Z,0
2018-08-14T04:15:57.529Z,0
2018-08-14T04:16:59.214Z,0
2018-08-14T04:18:00.933Z,0
2018-08-14T04:19:02.652Z,0
2018-08-14T04:20:04.339Z,0
2018-08-14T04:21:06.047Z,0
2018-08-14T04:22:07.743Z,0
2018-08-14T04:23:09.436Z,0
2018-08-14T04:24:11.147Z,0
2018-08-14T04:25:12.840Z,0
2018-08-14T04:26:14.551Z,0
2018-08-14T04:27:16.258Z,0
2018-08-14T04:28:17.972Z,0
2018-08-14T04:29:19.678Z,0
2018-08-14T04:30:21.356Z,0
2018-08-14T04:31:23.061Z,0
2018-08-14T04:32:24.734Z,0
2018-08-14T04:33:26.433Z,0
2018-08-14T04:34:28.147Z,0
2018-08-14T04:35:29.838Z,0
2018-08-14T04:36:31.525Z,0
2018-08-14T04:37:33.214Z,0
2018-08-14T04:38:34.924Z,0
2018-08-14T04:39:36.648Z,0
2018-08-14T04:40:38.358Z,0
2018-08-14T04:41:40.038Z,0
2018-08-14T04:42:41.756Z,0
2018-08-14T04:43:43.475Z,0
2018-08-14T04:44:45.189Z,0
2018-08-14T04:45:46.927Z,0
2018-08-14T04:46:48.606Z,0
2018-08-14T04:47:50.314Z,0
2018-08-14T04:48:52.031Z,0
2018-08-14T04:49:53.770Z,0
2018-08-14T04:50:55.499Z,0
2018-08-14T04:51:57.209Z,0
2018-08-14T04:52:58.887Z,0
2018-08-14T04:54:00.665Z,0
2018-08-14T04:55:02.285Z,0
2018-08-14T04:56:03.969Z,0
2018-08-14T04:57:05.695Z,0
2018-08-14T04:58:07.401Z,0
2018-08-14T04:59:09.119Z,0
2018-08-14T05:00:10.823Z,0
2018-08-14T05:01:12.534Z,0
2018-08-14T05:02:14.234Z,0
2018-08-14T05:03:16.001Z,0
2018-08-14T05:04:17.641Z,0
2018-08-14T05:05:19.332Z,0
2018-08-14T05:06:21.015Z,0
2018-08-14T05:07:22.694Z,0
2018-08-14T05:08:24.369Z,0
2018-08-14T05:09:26.077Z,0
2018-08-14T05:10:28.420Z,0
2018-08-14T05:11:30.175Z,0
2018-08-14T05:12:31.868Z,0
2018-08-14T05:13:33.546Z,0
2018-08-14T05:14:35.336Z,0
2018-08-14T05:15:37.006Z,0
2018-08-14T05:16:38.697Z,0
2018-08-14T05:17:40.421Z,0
2018-08-14T05:18:42.116Z,0
2018-08-14T05:19:43.812Z,0
2018-08-14T05:20:45.511Z,0
2018-08-14T05:21:47.220Z,0
2018-08-14T05:22:48.914Z,0
2018-08-14T05:23:50.603Z,0
2018-08-14T05:24:52.289Z,0
2018-08-14T05:25:53.989Z,0
2018-08-14T05:26:55.696Z,0
2018-08-14T05:27:57.388Z,0
2018-08-14T05:28:59.102Z,0
2018-08-14T05:30:00.873Z,0
2018-08-14T05:31:02.601Z,0
2018-08-14T05:32:04.312Z,0
2018-08-14T05:33:06.024Z,0
2018-08-14T05:34:07.743Z,0
2018-08-14T05:35:09.436Z,0
2018-08-14T05:36:11.160Z,0
2018-08-14T05:37:12.850Z,0
2018-08-14T05:38:14.569Z,0
2018-08-14T05:39:16.259Z,0
2018-08-14T05:40:17.946Z,0
2018-08-14T05:41:19.659Z,0
2018-08-14T05:42:21.376Z,0
2018-08-14T05:43:23.166Z,0
2018-08-14T05:44:24.794Z,0
2018-08-14T05:45:26.502Z,0
2018-08-14T05:46:28.208Z,0
2018-08-14T05:47:29.900Z,5
2018-08-14T05:48:31.585Z,5
2018-08-14T05:49:33.283Z,5
2018-08-14T05:50:34.967Z,5
2018-08-14T05:51:36.649Z,5
2018-08-14T05:52:38.383Z,5
2018-08-14T05:53:40.070Z,5
2018-08-14T05:54:41.756Z,5
2018-08-14T05:55:43.455Z,5
2018-08-14T05:56:45.404Z,5
2018-08-14T05:57:47.109Z,11
2018-08-14T05:58:49.611Z,11
2018-08-14T05:59:51.292Z,11
2018-08-14T06:00:52.989Z,11
2018-08-14T06:01:54.682Z,11
2018-08-14T06:02:56.438Z,11
2018-08-14T06:03:58.139Z,11
2018-08-14T06:04:59.817Z,11
2018-08-14T06:06:01.515Z,16
2018-08-14T06:07:03.231Z,16
2018-08-14T06:08:04.963Z,16
2018-08-14T06:09:06.702Z,16
2018-08-14T06:10:08.502Z,16
2018-08-14T06:11:10.101Z,16
2018-08-14T06:12:11.816Z,22
2018-08-14T06:13:13.543Z,22
2018-08-14T06:14:15.240Z,22
2018-08-14T06:15:16.963Z,28
2018-08-14T06:16:18.685Z,28
2018-08-14T06:17:20.390Z,28
2018-08-14T06:18:22.082Z,28
2018-08-14T06:19:23.818Z,28
2018-08-14T06:20:25.543Z,28
2018-08-14T06:21:27.258Z,28
2018-08-14T06:22:28.986Z,28
2018-08-14T06:23:30.713Z,28
2018-08-14T06:24:32.405Z,28
2018-08-14T06:25:34.128Z,33
2018-08-14T06:26:35.863Z,33
2018-08-14T06:27:37.560Z,33
2018-08-14T06:28:39.287Z,33
2018-08-14T06:29:41.017Z,33
2018-08-14T06:30:42.696Z,39
2018-08-14T06:31:44.400Z,39
2018-08-14T06:32:46.129Z,33
2018-08-14T06:33:47.853Z,39
2018-08-14T06:34:49.579Z,39
2018-08-14T06:35:51.303Z,39
2018-08-14T06:36:53.001Z,39
2018-08-14T06:37:54.704Z,39
2018-08-14T06:38:56.429Z,45
2018-08-14T06:39:58.178Z,45
2018-08-14T06:40:59.906Z,50
2018-08-14T06:42:01.598Z,50
2018-08-14T06:43:03.334Z,56
2018-08-14T06:44:05.057Z,56
2018-08-14T06:45:06.739Z,61
2018-08-14T06:46:08.429Z,61
2018-08-14T06:47:10.151Z,56
2018-08-14T06:48:11.890Z,61
2018-08-14T06:49:13.638Z,61
2018-08-14T06:50:15.368Z,61
2018-08-14T06:51:17.111Z,61
2018-08-14T06:52:18.826Z,61
2018-08-14T06:53:20.525Z,61
2018-08-14T06:54:22.246Z,67
2018-08-14T06:55:24.009Z,73
2018-08-14T06:56:25.747Z,73
2018-08-14T06:57:27.457Z,73
2018-08-14T06:58:29.192Z,78
2018-08-14T06:59:30.894Z,78
2018-08-14T07:00:32.643Z,78
2018-08-14T07:01:34.389Z,78
2018-08-14T07:02:36.082Z,78
2018-08-14T07:03:37.779Z,78
2018-08-14T07:04:39.501Z,78
2018-08-14T07:05:41.204Z,78
2018-08-14T07:06:42.905Z,78
2018-08-14T07:07:44.616Z,84
2018-08-14T07:08:46.326Z,84
2018-08-14T07:09:48.019Z,90
2018-08-14T07:10:49.726Z,90
2018-08-14T07:11:51.442Z,90
2018-08-14T07:12:53.136Z,95
2018-08-14T07:13:54.844Z,106
2018-08-14T07:14:56.570Z,101
2018-08-14T07:15:58.301Z,106
2018-08-14T07:17:00.019Z,106
2018-08-14T07:18:01.710Z,112
2018-08-14T07:19:03.443Z,118
2018-08-14T07:20:05.128Z,129
2018-08-14T07:21:06.838Z,129
2018-08-14T07:22:08.521Z,129
2018-08-14T07:23:10.243Z,129
2018-08-14T07:24:11.936Z,129
2018-08-14T07:25:13.632Z,129
2018-08-14T07:26:15.321Z,129
2018-08-14T07:27:17.045Z,129
2018-08-14T07:28:18.807Z,129
2018-08-14T07:29:20.487Z,129
2018-08-14T07:30:22.217Z,135
2018-08-14T07:31:23.907Z,135
2018-08-14T07:32:25.626Z,135
2018-08-14T07:33:27.321Z,140
2018-08-14T07:34:29.047Z,140
2018-08-14T07:35:30.758Z,140
2018-08-14T07:36:32.447Z,140
2018-08-14T07:37:34.241Z,146
2018-08-14T07:38:35.938Z,146
2018-08-14T07:39:37.633Z,146
2018-08-14T07:40:39.338Z,151
2018-08-14T07:41:41.058Z,157
2018-08-14T07:42:42.774Z,157
2018-08-14T07:43:44.485Z,163
2018-08-14T07:44:46.186Z,174
2018-08-14T07:45:47.898Z,174
2018-08-14T07:46:49.587Z,174
2018-08-14T07:47:51.355Z,174
2018-08-14T07:48:53.085Z,180
2018-08-14T07:49:54.775Z,180
2018-08-14T07:50:56.504Z,180
2018-08-14T07:51:58.218Z,191
2018-08-14T07:53:00.026Z,185
2018-08-14T07:54:01.657Z,180
2018-08-14T07:55:03.384Z,174
2018-08-14T07:56:05.112Z,174
2018-08-14T07:57:06.866Z,168
2018-08-14T07:58:08.585Z,174
2018-08-14T07:59:10.301Z,163
2018-08-14T08:00:12.000Z,163
2018-08-14T08:01:13.715Z,157
2018-08-14T08:02:15.431Z,157
2018-08-14T08:03:17.120Z,157
2018-08-14T08:04:18.822Z,168
2018-08-14T08:05:20.517Z,180
2018-08-14T08:06:22.227Z,191
2018-08-14T08:07:23.964Z,185
2018-08-14T08:08:25.682Z,185
2018-08-14T08:09:27.374Z,196
2018-08-14T08:10:29.119Z,202
2018-08-14T08:11:30.792Z,208
2018-08-14T08:12:32.518Z,208
2018-08-14T08:13:34.243Z,213
2018-08-14T08:14:35.940Z,202
2018-08-14T08:15:37.663Z,202
2018-08-14T08:16:39.389Z,208
2018-08-14T08:17:41.091Z,202
2018-08-14T08:18:42.825Z,208
2018-08-14T08:19:44.536Z,208
2018-08-14T08:20:46.283Z,202
2018-08-14T08:21:47.975Z,202
2018-08-14T08:22:49.704Z,196
2018-08-14T08:23:51.438Z,202
2018-08-14T08:24:53.155Z,208
2018-08-14T08:25:55.145Z,208
2018-08-14T08:26:57.220Z,208
2018-08-14T08:27:58.862Z,213
2018-08-14T08:29:00.717Z,219
2018-08-14T08:30:03.682Z,213
2018-08-14T08:31:07.566Z,219
2018-08-14T08:32:11.002Z,225
2018-08-14T08:33:14.308Z,225
2018-08-14T08:34:17.522Z,225
2018-08-14T08:35:20.336Z,225
2018-08-14T08:36:23.090Z,241
2018-08-14T08:37:25.703Z,258
2018-08-14T08:38:28.331Z,264
2018-08-14T08:39:31.111Z,270
2018-08-14T08:40:33.543Z,275
2018-08-14T08:41:36.550Z,275
2018-08-14T08:42:39.791Z,281
2018-08-14T08:43:42.463Z,292
2018-08-14T08:44:45.152Z,298
2018-08-14T08:45:47.962Z,315
2018-08-14T08:46:51.197Z,326
2018-08-14T08:47:53.654Z,343
2018-08-14T08:48:56.454Z,348
2018-08-14T08:49:58.687Z,337
2018-08-14T08:51:01.181Z,326
2018-08-14T08:52:04.000Z,303
2018-08-14T08:53:06.433Z,292
2018-08-14T08:54:08.920Z,292
2018-08-14T08:55:10.985Z,292
2018-08-14T08:56:13.421Z,298
2018-08-14T08:57:15.218Z,303
2018-08-14T08:58:17.063Z,315
2018-08-14T08:59:18.672Z,309
2018-08-14T09:00:20.416Z,309
2018-08-14T09:01:22.282Z,309
2018-08-14T09:02:24.004Z,309
2018-08-14T09:03:25.775Z,303
2018-08-14T09:04:27.461Z,320
2018-08-14T09:05:29.201Z,348
2018-08-14T09:06:30.936Z,371
2018-08-14T09:07:32.666Z,360
2018-08-14T09:08:34.368Z,348
2018-08-14T09:09:36.107Z,360
2018-08-14T09:10:37.827Z,382
2018-08-14T09:11:39.560Z,382
2018-08-14T09:12:41.301Z,376
2018-08-14T09:13:43.154Z,371
2018-08-14T09:14:44.882Z,365
2018-08-14T09:15:46.817Z,365
2018-08-14T09:16:50.721Z,365
2018-08-14T09:17:52.445Z,365
2018-08-14T09:18:54.202Z,382
2018-08-14T09:19:55.917Z,427
2018-08-14T09:20:57.625Z,433
2018-08-14T09:21:59.348Z,433
2018-08-14T09:23:01.123Z,455
2018-08-14T09:24:02.831Z,410
2018-08-14T09:25:04.535Z,410
2018-08-14T09:26:06.254Z,410
2018-08-14T09:27:08.010Z,405
2018-08-14T09:28:09.723Z,405
2018-08-14T09:29:11.439Z,410
2018-08-14T09:30:13.240Z,376
2018-08-14T09:31:14.914Z,354
2018-08-14T09:32:16.642Z,365
2018-08-14T09:33:18.545Z,388
2018-08-14T09:34:20.265Z,393
2018-08-14T09:35:22.204Z,399
2018-08-14T09:36:23.934Z,399
2018-08-14T09:37:25.847Z,405
2018-08-14T09:38:27.748Z,410
2018-08-14T09:39:29.480Z,450
2018-08-14T09:40:31.225Z,450
2018-08-14T09:41:32.994Z,450
2018-08-14T09:42:34.723Z,455
2018-08-14T09:43:36.489Z,444
2018-08-14T09:44:38.255Z,450
2018-08-14T09:45:39.966Z,450
2018-08-14T09:46:41.708Z,478
2018-08-14T09:47:43.433Z,483
2018-08-14T09:48:45.214Z,500
2018-08-14T09:49:46.968Z,506
2018-08-14T09:50:48.717Z,495
2018-08-14T09:51:50.448Z,489
2018-08-14T09:52:52.168Z,466
2018-08-14T09:53:53.959Z,444
2018-08-14T09:54:55.581Z,450
2018-08-14T09:55:57.291Z,478
2018-08-14T09:56:59.021Z,489
2018-08-14T09:58:00.712Z,489
2018-08-14T09:59:02.422Z,506
2018-08-14T10:00:04.131Z,495
2018-08-14T10:01:05.833Z,523
2018-08-14T10:02:07.535Z,523
2018-08-14T10:03:09.262Z,523
2018-08-14T10:04:10.992Z,506
2018-08-14T10:05:12.734Z,478
2018-08-14T10:06:14.422Z,506
2018-08-14T10:07:16.164Z,517
2018-08-14T10:08:17.872Z,523
2018-08-14T10:09:19.601Z,517
2018-08-14T10:10:21.327Z,506
2018-08-14T10:11:23.064Z,511
2018-08-14T10:12:24.800Z,489
2018-08-14T10:13:26.530Z,495
2018-08-14T10:14:28.265Z,489
2018-08-14T10:15:29.965Z,500
2018-08-14T10:16:31.688Z,489
2018-08-14T10:17:33.389Z,461
2018-08-14T10:18:35.111Z,427
2018-08-14T10:19:36.812Z,376
2018-08-14T10:20:38.517Z,303
2018-08-14T10:21:40.259Z,326
2018-08-14T10:22:41.997Z,343
2018-08-14T10:23:43.701Z,320
2018-08-14T10:24:45.401Z,298
2018-08-14T10:25:47.131Z,331
2018-08-14T10:26:48.877Z,309
2018-08-14T10:27:50.627Z,298
2018-08-14T10:28:52.407Z,281
2018-08-14T10:29:54.101Z,258
2018-08-14T10:30:55.813Z,258
2018-08-14T10:31:57.518Z,264
2018-08-14T10:32:59.265Z,247
2018-08-14T10:34:01.008Z,236
2018-08-14T10:35:02.737Z,230
2018-08-14T10:36:04.458Z,230
2018-08-14T10:37:06.151Z,225
2018-08-14T10:38:07.848Z,225
2018-08-14T10:39:09.550Z,219
2018-08-14T10:40:11.280Z,230
2018-08-14T10:41:12.979Z,241
2018-08-14T10:42:14.689Z,236
2018-08-14T10:43:16.391Z,241
2018-08-14T10:44:18.081Z,236
2018-08-14T10:45:19.812Z,219
2018-08-14T10:46:21.538Z,219
2018-08-14T10:47:23.288Z,225
2018-08-14T10:48:24.980Z,225
2018-08-14T10:49:26.690Z,225
2018-08-14T10:50:28.441Z,230
2018-08-14T10:51:30.143Z,225
2018-08-14T10:52:31.872Z,230
2018-08-14T10:53:33.575Z,230
2018-08-14T10:54:35.279Z,230
2018-08-14T10:55:37.062Z,230
2018-08-14T10:56:38.806Z,236
2018-08-14T10:57:40.509Z,236
2018-08-14T10:58:42.304Z,230
2018-08-14T10:59:43.966Z,230
2018-08-14T11:00:45.678Z,236
2018-08-14T11:01:47.447Z,236
2018-08-14T11:02:49.145Z,236
2018-08-14T11:03:50.896Z,241
2018-08-14T11:04:52.685Z,247
2018-08-14T11:05:54.391Z,241
2018-08-14T11:06:56.121Z,253
2018-08-14T11:07:57.866Z,253
2018-08-14T11:09:00.297Z,253
2018-08-14T11:10:02.031Z,258
2018-08-14T11:11:03.734Z,247
2018-08-14T11:12:05.440Z,253
2018-08-14T11:13:07.178Z,253
2018-08-14T11:14:08.872Z,247
2018-08-14T11:15:10.571Z,253
2018-08-14T11:16:12.260Z,253
2018-08-14T11:17:14.007Z,253
2018-08-14T11:18:15.749Z,253
2018-08-14T11:19:17.487Z,253
2018-08-14T11:20:19.228Z,253
2018-08-14T11:21:20.938Z,253
2018-08-14T11:22:22.672Z,253
2018-08-14T11:23:24.395Z,247
2018-08-14T11:24:26.101Z,247
2018-08-14T11:25:27.822Z,253
2018-08-14T11:26:29.563Z,253
2018-08-14T11:27:31.313Z,253
2018-08-14T11:28:33.062Z,253
2018-08-14T11:29:34.789Z,253
2018-08-14T11:30:36.508Z,258
2018-08-14T11:31:38.240Z,253
2018-08-14T11:32:39.929Z,253
2018-08-14T11:33:41.662Z,253
2018-08-14T11:34:43.403Z,253
2018-08-14T11:35:45.146Z,253
2018-08-14T11:36:46.881Z,253
2018-08-14T11:37:48.608Z,253
2018-08-14T11:38:50.313Z,253
2018-08-14T11:39:52.046Z,253
2018-08-14T11:40:53.796Z,253
2018-08-14T11:41:55.535Z,253
2018-08-14T11:42:57.258Z,253
2018-08-14T11:43:58.964Z,253
2018-08-14T11:45:00.700Z,258
2018-08-14T11:46:02.397Z,258
2018-08-14T11:47:04.123Z,258
2018-08-14T11:48:05.825Z,258
2018-08-14T11:49:07.528Z,258
2018-08-14T11:50:09.281Z,264
2018-08-14T11:51:11.005Z,270
2018-08-14T11:52:12.732Z,275
2018-08-14T11:53:14.472Z,275
2018-08-14T11:54:16.172Z,275
2018-08-14T11:55:17.884Z,275
2018-08-14T11:56:19.574Z,275
2018-08-14T11:57:21.314Z,281
2018-08-14T11:58:23.049Z,281
2018-08-14T11:59:24.775Z,281
2018-08-14T12:00:26.550Z,292
2018-08-14T12:01:28.284Z,303
2018-08-14T12:02:29.979Z,315
2018-08-14T12:03:31.683Z,348
2018-08-14T12:04:33.413Z,421
2018-08-14T12:05:35.123Z,1237
2018-08-14T12:06:36.868Z,2238
2018-08-14T12:07:38.616Z,2739
2018-08-14T12:08:40.370Z,2851
2018-08-14T12:09:42.119Z,3110
2018-08-14T12:10:43.834Z,3048
2018-08-14T12:11:45.547Z,2981
2018-08-14T12:12:47.340Z,3031
2018-08-14T12:13:48.989Z,3341
2018-08-14T12:14:50.710Z,3178
2018-08-14T12:15:52.476Z,3099
2018-08-14T12:16:54.223Z,3060
2018-08-14T12:17:55.952Z,3285
2018-08-14T12:18:57.688Z,3110
2018-08-14T12:19:59.398Z,2986
2018-08-14T12:21:01.109Z,3172
2018-08-14T12:22:02.846Z,3015
2018-08-14T12:23:04.547Z,3026
2018-08-14T12:24:06.274Z,3161
2018-08-14T12:25:07.988Z,3301
2018-08-14T12:26:09.751Z,3313
2018-08-14T12:27:11.479Z,3161
2018-08-14T12:28:13.179Z,3256
2018-08-14T12:29:14.958Z,3318
2018-08-14T12:30:16.662Z,3200
2018-08-14T12:31:18.419Z,3330
2018-08-14T12:32:20.206Z,3414
2018-08-14T12:33:21.926Z,3375
2018-08-14T12:34:23.688Z,3346
2018-08-14T12:35:25.485Z,3195
2018-08-14T12:36:27.239Z,3369
2018-08-14T12:37:28.965Z,3650
2018-08-14T12:38:30.728Z,3459
2018-08-14T12:39:32.400Z,3251
2018-08-14T12:40:34.119Z,3172
2018-08-14T12:41:41.955Z,3313
2018-08-14T12:42:49.527Z,3240
2018-08-14T12:43:55.813Z,3206
2018-08-14T12:45:02.862Z,3301
2018-08-14T12:46:08.956Z,3588
2018-08-14T12:47:13.773Z,3498
2018-08-14T12:48:15.535Z,3639
2018-08-14T12:49:17.303Z,3571
2018-08-14T12:50:19.028Z,3397
2018-08-14T12:51:20.750Z,3375
2018-08-14T12:52:22.541Z,3324
2018-08-14T12:53:24.268Z,3453
2018-08-14T12:54:25.998Z,3459
2018-08-14T12:55:27.715Z,3414
2018-08-14T12:56:29.459Z,3566
2018-08-14T12:57:31.241Z,3453
2018-08-14T12:58:33.028Z,3425
2018-08-14T12:59:34.744Z,3470
2018-08-14T13:00:36.553Z,3386
2018-08-14T13:01:38.325Z,3391
2018-08-14T13:02:40.037Z,3476
2018-08-14T13:03:41.745Z,3465
2018-08-14T13:04:43.537Z,3510
2018-08-14T13:05:45.254Z,3431
2018-08-14T13:06:47.033Z,3470
2018-08-14T13:07:48.764Z,3110
2018-08-14T13:08:50.588Z,3093
2018-08-14T13:09:52.329Z,3369
2018-08-14T13:10:54.128Z,3217
2018-08-14T13:11:55.905Z,3172
2018-08-14T13:12:57.666Z,3363
2018-08-14T13:13:59.479Z,3251
2018-08-14T13:15:01.218Z,3296
2018-08-14T13:16:02.918Z,3256
2018-08-14T13:17:04.695Z,3268
2018-08-14T13:18:06.424Z,3206
2018-08-14T13:19:08.149Z,3268
2018-08-14T13:20:09.862Z,3408
2018-08-14T13:21:11.664Z,3420
2018-08-14T13:22:13.460Z,3301
2018-08-14T13:23:15.273Z,3251
2018-08-14T13:24:17.040Z,3189
2018-08-14T13:25:18.834Z,3436
2018-08-14T13:26:20.550Z,3408
2018-08-14T13:27:22.271Z,3442
2018-08-14T13:28:24.079Z,3301
2018-08-14T13:29:25.785Z,3105
2018-08-14T13:30:27.597Z,3301
2018-08-14T13:31:29.321Z,3290
2018-08-14T13:32:31.121Z,3262
2018-08-14T13:33:32.931Z,2992
2018-08-14T13:34:34.692Z,3138
2018-08-14T13:35:36.483Z,3352
2018-08-14T13:36:38.245Z,3341
2018-08-14T13:37:39.956Z,2514
2018-08-14T13:38:41.669Z,1141
2018-08-14T13:39:43.442Z,759
2018-08-14T13:40:45.159Z,708
2018-08-14T13:41:46.932Z,669
2018-08-14T13:42:48.645Z,652
2018-08-14T13:43:50.407Z,646
2018-08-14T13:44:52.113Z,646
2018-08-14T13:45:53.837Z,652
2018-08-14T13:46:55.538Z,663
2018-08-14T13:47:57.270Z,691
2018-08-14T13:48:58.979Z,742
2018-08-14T13:50:00.753Z,1164
2018-08-14T13:51:02.464Z,2199
2018-08-14T13:52:04.186Z,2475
2018-08-14T13:53:05.955Z,2115
2018-08-14T13:54:07.652Z,1186
2018-08-14T13:55:09.359Z,708
2018-08-14T13:56:11.170Z,658
2018-08-14T13:57:12.980Z,630
2018-08-14T13:58:14.699Z,618
2018-08-14T13:59:16.526Z,601
2018-08-14T14:00:18.170Z,590
2018-08-14T14:01:19.883Z,579
2018-08-14T14:02:21.654Z,579
2018-08-14T14:03:23.419Z,573
2018-08-14T14:04:25.213Z,579
2018-08-14T14:05:26.978Z,573
2018-08-14T14:06:28.684Z,579
2018-08-14T14:07:30.465Z,568
2018-08-14T14:08:32.177Z,573
2018-08-14T14:09:33.897Z,568
2018-08-14T14:10:35.686Z,568
2018-08-14T14:11:37.475Z,568
2018-08-14T14:12:39.185Z,568
2018-08-14T14:13:40.885Z,573
2018-08-14T14:14:42.597Z,585
2018-08-14T14:15:44.369Z,635
2018-08-14T14:16:46.150Z,1203
2018-08-14T14:17:47.859Z,1963
2018-08-14T14:18:49.563Z,1783
2018-08-14T14:19:51.352Z,1051
2018-08-14T14:20:53.155Z,720
2018-08-14T14:21:54.836Z,697
2018-08-14T14:22:56.562Z,680
2018-08-14T14:23:58.336Z,675
2018-08-14T14:25:00.102Z,663
2018-08-14T14:26:01.806Z,663
2018-08-14T14:27:03.541Z,658
2018-08-14T14:28:05.311Z,652
2018-08-14T14:29:07.024Z,641
2018-08-14T14:30:08.785Z,641
2018-08-14T14:31:10.556Z,635
2018-08-14T14:32:12.264Z,646
2018-08-14T14:33:13.967Z,641
2018-08-14T14:34:15.704Z,641
2018-08-14T14:35:17.404Z,641